Time;durP1;ratioP1;P1;durP2;ratioP2;P2;SDS_P1;SDS_P2;PMS_P1;PMS_P2;Temp;Humidity;BMP_temperature;BMP_pressure;BME280_temperature;BME280_humidity;BME280_pressure;Samples;Min_cycle;Max_cycle;Signal;HPM_P1;HPM_P2
2022/10/28 00:01:20;;;;;;;;;;;;;;;;;;5111829;28;1829;-49
2022/10/28 00:03:48;;;;;;;;;;;;;;;;;;5111786;28;1975;-44
2022/10/28 00:06:17;;;;;;;;;;;;;;;;;;5111592;28;1894;-44
2022/10/28 00:08:44;;;;;;;;;;;;;;;;;;5111716;28;1890;-47
2022/10/28 00:11:16;;;;;;;;;;;;;;;;;;5111530;28;1913;-42
2022/10/28 00:13:44;;;;;;;;;;;;;;;;;;5116155;28;2050;-44
2022/10/28 00:16:12;;;;;;;;;;;;;;;;;;5115778;28;1387;-48
2022/10/28 00:18:40;;;;;;;;;;;;;;;;;;5116076;28;1955;-49
2022/10/28 00:21:17;;;;;;;;;;;;;;;;;;5115873;28;1510;-47
2022/10/28 00:23:44;;;;;;;;;;;;;;;;;;5115722;28;2109;-47
2022/10/28 00:26:13;;;;;;;;;;;;;;;;;;5115723;28;1573;-42
2022/10/28 00:28:41;;;;;;;;;;;;;;;;;;5115539;28;2117;-48
2022/10/28 00:31:08;;;;;;;;;;;;;;;;;;5115659;28;1901;-44
2022/10/28 00:33:35;;;;;;;;;;;;;;;;;;5136039;27;2099;-40
2022/10/28 00:36:25;;;;;;;;;;;;;;;;;;5136379;27;2112;-46
2022/10/28 00:38:54;;;;;;;;;;;;;;;;;;5130705;27;1829;-47
2022/10/28 00:41:28;;;;;;;;;;;;;;;;;;5136126;27;1931;-46
2022/10/28 00:43:57;;;;;;;;;;;;;;;;;;5135749;27;1841;-46
2022/10/28 00:46:24;;;;;;;;;;;;;;;;;;5135755;27;2113;-44
2022/10/28 00:48:54;;;;;;;;;;;;;;;;;;5135796;27;1485;-44
2022/10/28 00:51:23;;;;;;;;;;;;;;;;;;5134607;27;1961;-43
2022/10/28 00:53:51;;;;;;;;;;;;;;;;;;5135662;27;1943;-45
2022/10/28 00:56:19;;;;;;;;;;;;;;;;;;5135908;27;1940;-47
2022/10/28 00:58:47;;;;;;;;;;;;;;;;;;5135735;27;2123;-43
2022/10/28 01:01:14;;;;;;;;;;;;;;;;;;5135577;27;2332;-49
2022/10/28 01:03:41;;;;;;;;;;;;;;;;;;5135496;27;1508;-47
2022/10/28 01:06:09;;;;;;;;;;;;;;;;;;5135299;27;1945;-49
2022/10/28 01:08:36;;;;;;;;;;;;;;;;;;5135447;27;2129;-45
2022/10/28 01:11:23;;;;;;;;;;;;;;;;;;5135588;27;2106;-43
2022/10/28 01:13:50;;;;;;;;;;;;;;;;;;5135678;27;1865;-47
2022/10/28 01:16:20;;;;;;;;;;;;;;;;;;5135455;27;1564;-45
2022/10/28 01:19:03;;;;;;;;;;;;;;;;;;5135067;27;2148;-46
2022/10/28 01:21:39;;;;;;;;;;;;;;;;;;5135227;27;1433;-45
2022/10/28 01:24:09;;;;;;;;;;;;;;;;;;5134230;27;1792;-48
2022/10/28 01:26:36;;;;;;;;;;;;;;;;;;5135310;27;1984;-48
2022/10/28 01:29:22;;;;;;;;;;;;;;;;;;5121379;27;1819;-45
2022/10/28 01:31:53;;;;;;;;;;;;;;;;;;5114285;28;1908;-47
2022/10/28 01:34:26;;;;;;;;;;;;;;;;;;5114530;28;1643;-48
2022/10/28 01:36:56;;;;;;;;;;;;;;;;;;5114319;28;2021;-46
2022/10/28 01:39:29;;;;;;;;;;;;;;;;;;5114316;28;1786;-45
2022/10/28 01:42:03;;;;;;;;;;;;;;;;;;5114453;28;1632;-45
2022/10/28 01:44:36;;;;;;;;;;;;;;;;;;5114012;28;1901;-40
2022/10/28 01:47:09;;;;;;;;;;;;;;;;;;5114438;28;1539;-44
2022/10/28 01:49:48;;;;;;;;;;;;;;;;;;5114160;28;2000;-47
2022/10/28 01:52:17;;;;;;;;;;;;;;;;;;5132506;27;1797;-46
2022/10/28 01:54:50;;;;;;;;;;;;;;;;;;5133190;27;2046;-47
2022/10/28 01:57:17;;;;;;;;;;;;;;;;;;5134701;27;1626;-43
2022/10/28 01:59:46;;;;;;;;;;;;;;;;;;5134265;27;2000;-46
2022/10/28 02:02:17;;;;;;;;;;;;;;;;;;5132897;27;1737;-45
2022/10/28 02:04:44;;;;;;;;;;;;;;;;;;5134173;27;1991;-43
2022/10/28 02:07:11;;;;;;;;;;;;;;;;;;5131445;27;2119;-42
2022/10/28 02:09:47;;;;;;;;;;;;;;;;;;5134591;27;1930;-50
2022/10/28 02:12:19;;;;;;;;;;;;;;;;;;5134313;27;1925;-41
2022/10/28 02:14:49;;;;;;;;;;;;;;;;;;5134033;27;2004;-43
2022/10/28 02:17:28;;;;;;;;;;;;;;;;;;5134146;27;2268;-42
2022/10/28 02:20:14;;;;;;;;;;;;;;;;;;5133835;27;1915;-44
2022/10/28 02:22:48;;;;;;;;;;;;;;;;;;5133945;27;1794;-51
2022/10/28 02:25:24;;;;;;;;;;;;;;;;;;5120472;27;1794;-45
2022/10/28 02:27:57;;;;;;;;;;;;;;;;;;5113395;28;2323;-45
2022/10/28 02:30:42;;;;;;;;;;;;;;;;;;5113313;28;2168;-43
2022/10/28 02:33:11;;;;;;;;;;;;;;;;;;5113471;28;1469;-44
2022/10/28 02:35:41;;;;;;;;;;;;;;;;;;5113254;28;1916;-44
2022/10/28 02:38:19;;;;;;;;;;;;;;;;;;5113455;28;2059;-45
2022/10/28 02:40:50;;;;;;;;;;;;;;;;;;5112949;28;1928;-44
2022/10/28 02:43:23;;;;;;;;;;;;;;;;;;5111511;28;1781;-44
2022/10/28 02:45:53;;;;;;;;;;;;;;;;;;5111675;28;1826;-43
2022/10/28 02:48:22;;;;;;;;;;;;;;;;;;5113014;28;2187;-41
2022/10/28 02:50:53;;;;;;;;;;;;;;;;;;5113824;27;2369;-44
2022/10/28 02:53:27;;;;;;;;;;;;;;;;;;5113148;28;1831;-45
2022/10/28 02:55:56;;;;;;;;;;;;;;;;;;5113075;28;1384;-47
2022/10/28 02:58:23;;;;;;;;;;;;;;;;;;5112735;28;2053;-41
2022/10/28 03:00:50;;;;;;;;;;;;;;;;;;5112361;28;1845;-42
2022/10/28 03:03:17;;;;;;;;;;;;;;;;;;5112603;28;1998;-43
2022/10/28 03:05:45;;;;;;;;;;;;;;;;;;5112471;28;2075;-50
2022/10/28 03:08:12;;;;;;;;;;;;;;;;;;5112726;28;1452;-42
2022/10/28 03:10:39;;;;;;;;;;;;;;;;;;5112586;28;2003;-46
2022/10/28 03:13:06;;;;;;;;;;;;;;;;;;5112443;28;2141;-47
2022/10/28 03:15:33;;;;;;;;;;;;;;;;;;5112453;28;2076;-45
2022/10/28 03:17:59;;;;;;;;;;;;;;;;;;5112573;28;1887;-42
2022/10/28 03:20:27;;;;;;;;;;;;;;;;;;5112334;28;1543;-49
2022/10/28 03:22:54;;;;;;;;;;;;;;;;;;5112308;28;2153;-47
2022/10/28 03:25:21;;;;;;;;;;;;;;;;;;5112346;27;2034;-43
2022/10/28 03:27:48;;;;;;;;;;;;;;;;;;5111984;28;1873;-41
2022/10/28 03:30:17;;;;;;;;;;;;;;;;;;5111948;28;2071;-42
2022/10/28 03:32:44;;;;;;;;;;;;;;;;;;5112308;28;2220;-42
2022/10/28 03:35:11;;;;;;;;;;;;;;;;;;5112306;28;2056;-43
2022/10/28 03:37:42;;;;;;;;;;;;;;;;;;5112041;28;2159;-46
2022/10/28 03:40:10;;;;;;;;;;;;;;;;;;5111953;28;1657;-46
2022/10/28 03:42:39;;;;;;;;;;;;;;;;;;5112153;28;2093;-44
2022/10/28 03:45:07;;;;;;;;;;;;;;;;;;5110738;28;1444;-43
2022/10/28 03:47:36;;;;;;;;;;;;;;;;;;5111433;28;1954;-48
2022/10/28 03:50:03;;;;;;;;;;;;;;;;;;5111957;28;1947;-51
2022/10/28 03:52:30;;;;;;;;;;;;;;;;;;5132103;27;1829;-41
2022/10/28 03:54:57;;;;;;;;;;;;;;;;;;5132299;27;1470;-50
2022/10/28 03:57:24;;;;;;;;;;;;;;;;;;5132296;27;1960;-47
2022/10/28 03:59:51;;;;;;;;;;;;;;;;;;5132280;27;2032;-41
2022/10/28 04:02:18;;;;;;;;;;;;;;;;;;5132322;27;1575;-46
2022/10/28 04:04:45;;;;;;;;;;;;;;;;;;5132378;27;1933;-42
2022/10/28 04:07:13;;;;;;;;;;;;;;;;;;5132619;27;1828;-49
2022/10/28 04:09:40;;;;;;;;;;;;;;;;;;5132271;27;1908;-46
2022/10/28 04:12:09;;;;;;;;;;;;;;;;;;5132234;27;2133;-44
2022/10/28 04:14:36;;;;;;;;;;;;;;;;;;5132129;27;1601;-48
2022/10/28 04:17:03;;;;;;;;;;;;;;;;;;5132038;27;1700;-49
2022/10/28 04:19:30;;;;;;;;;;;;;;;;;;5132271;27;1900;-50
2022/10/28 04:21:57;;;;;;;;;;;;;;;;;;5131980;27;1657;-44
2022/10/28 04:24:24;;;;;;;;;;;;;;;;;;5132030;27;1798;-49
2022/10/28 04:26:59;;;;;;;;;;;;;;;;;;5132219;27;1558;-50
2022/10/28 04:29:26;;;;;;;;;;;;;;;;;;5132055;27;2008;-46
2022/10/28 04:31:53;;;;;;;;;;;;;;;;;;5131932;28;1909;-48
2022/10/28 04:34:20;;;;;;;;;;;;;;;;;;5111738;27;1826;-41
2022/10/28 04:36:47;;;;;;;;;;;;;;;;;;5111698;28;2137;-48
2022/10/28 04:39:14;;;;;;;;;;;;;;;;;;5111738;28;1909;-46
2022/10/28 04:41:42;;;;;;;;;;;;;;;;;;5111446;28;1782;-50
2022/10/28 04:44:09;;;;;;;;;;;;;;;;;;5111294;28;2127;-45
2022/10/28 04:46:36;;;;;;;;;;;;;;;;;;5111463;28;1714;-47
2022/10/28 04:49:03;;;;;;;;;;;;;;;;;;5130062;27;1946;-48
2022/10/28 04:51:30;;;;;;;;;;;;;;;;;;5119719;27;1922;-45
2022/10/28 04:53:57;;;;;;;;;;;;;;;;;;5111213;28;1376;-49
2022/10/28 04:56:24;;;;;;;;;;;;;;;;;;5111167;28;2443;-47
2022/10/28 04:58:51;;;;;;;;;;;;;;;;;;5112237;28;2336;-49
2022/10/28 05:01:18;;;;;;;;;;;;;;;;;;5113832;28;2129;-49
2022/10/28 05:03:45;;;;;;;;;;;;;;;;;;5115183;27;1725;-45
2022/10/28 05:06:13;;;;;;;;;;;;;;;;;;5114748;28;1435;-46
2022/10/28 05:08:40;;;;;;;;;;;;;;;;;;5114876;28;2073;-49
2022/10/28 05:11:07;;;;;;;;;;;;;;;;;;5114898;28;2003;-51
2022/10/28 05:13:35;;;;;;;;;;;;;;;;;;5114847;28;2047;-42
2022/10/28 05:16:03;;;;;;;;;;;;;;;;;;5114771;28;2278;-49
2022/10/28 05:18:30;;;;;;;;;;;;;;;;;;5114981;28;1523;-43
2022/10/28 05:20:59;;;;;;;;;;;;;;;;;;5114556;28;1923;-44
2022/10/28 05:23:26;;;;;;;;;;;;;;;;;;5114695;27;1667;-45
2022/10/28 05:25:58;;;;;;;;;;;;;;;;;;5114456;28;2046;-48
2022/10/28 05:28:25;;;;;;;;;;;;;;;;;;5114633;28;1566;-40
2022/10/28 05:30:52;;;;;;;;;;;;;;;;;;5114073;28;1905;-47
2022/10/28 05:33:19;;;;;;;;;;;;;;;;;;5114619;28;1827;-48
2022/10/28 05:35:47;;;;;;;;;;;;;;;;;;5113999;28;1809;-45
2022/10/28 05:38:20;;;;;;;;;;;;;;;;;;5114471;28;2174;-47
2022/10/28 05:40:47;;;;;;;;;;;;;;;;;;5114592;28;1227;-48
2022/10/28 05:43:14;;;;;;;;;;;;;;;;;;5113857;28;1642;-45
2022/10/28 05:45:41;;;;;;;;;;;;;;;;;;5113697;28;2325;-44
2022/10/28 05:48:09;;;;;;;;;;;;;;;;;;5114150;28;1931;-41
2022/10/28 05:50:36;;;;;;;;;;;;;;;;;;5114013;28;1603;-48
2022/10/28 05:53:03;;;;;;;;;;;;;;;;;;5114162;28;1827;-43
2022/10/28 05:55:30;;;;;;;;;;;;;;;;;;5113065;28;2066;-49
2022/10/28 05:57:58;;;;;;;;;;;;;;;;;;5113869;28;1583;-53
2022/10/28 06:00:34;;;;;;;;;;;;;;;;;;5113988;28;2077;-44
2022/10/28 06:03:05;;;;;;;;;;;;;;;;;;5113676;28;2224;-46
2022/10/28 06:05:32;;;;;;;;;;;;;;;;;;5113705;28;1814;-50
2022/10/28 06:07:59;;;;;;;;;;;;;;;;;;5113769;28;2021;-40
2022/10/28 06:10:26;;;;;;;;;;;;;;;;;;5113583;27;2002;-52
2022/10/28 06:12:54;;;;;;;;;;;;;;;;;;5113795;28;1906;-44
2022/10/28 06:15:22;;;;;;;;;;;;;;;;;;5131582;27;1986;-42
2022/10/28 06:17:49;;;;;;;;;;;;;;;;;;5134354;27;1719;-46
2022/10/28 06:20:20;;;;;;;;;;;;;;;;;;5134331;27;1915;-45
2022/10/28 06:22:48;;;;;;;;;;;;;;;;;;5133982;27;1256;-49
2022/10/28 06:25:17;;;;;;;;;;;;;;;;;;5133896;27;2021;-48
2022/10/28 06:27:44;;;;;;;;;;;;;;;;;;5134152;27;1951;-46
2022/10/28 06:30:12;;;;;;;;;;;;;;;;;;5133834;27;1850;-46
2022/10/28 06:32:39;;;;;;;;;;;;;;;;;;5133638;27;2185;-42
2022/10/28 06:35:07;;;;;;;;;;;;;;;;;;5133713;27;1746;-40
2022/10/28 06:37:34;;;;;;;;;;;;;;;;;;5133473;27;1623;-45
2022/10/28 06:40:02;;;;;;;;;;;;;;;;;;5133528;27;1827;-47
2022/10/28 06:42:30;;;;;;;;;;;;;;;;;;5133607;27;1556;-50
2022/10/28 06:44:57;;;;;;;;;;;;;;;;;;5133513;27;2151;-46
2022/10/28 06:47:24;;;;;;;;;;;;;;;;;;5132685;27;1916;-44
2022/10/28 06:49:51;;;;;;;;;;;;;;;;;;5133486;27;1828;-43
2022/10/28 06:52:18;;;;;;;;;;;;;;;;;;5114408;27;2354;-40
2022/10/28 06:54:46;;;;;;;;;;;;;;;;;;5112813;28;1887;-40
2022/10/28 06:57:16;;;;;;;;;;;;;;;;;;5112818;28;2068;-50
2022/10/28 06:59:44;;;;;;;;;;;;;;;;;;5112815;28;1937;-45
2022/10/28 07:02:11;;;;;;;;;;;;;;;;;;5112800;28;2037;-42
2022/10/28 07:04:39;;;;;;;;;;;;;;;;;;5112561;28;1846;-42
2022/10/28 07:07:08;;;;;;;;;;;;;;;;;;5112446;28;1875;-44
2022/10/28 07:09:38;;;;;;;;;;;;;;;;;;5112626;28;2030;-43
2022/10/28 07:12:06;;;;;;;;;;;;;;;;;;5112631;28;1997;-46
2022/10/28 07:14:33;;;;;;;;;;;;;;;;;;5112497;28;2259;-43
2022/10/28 07:17:01;;;;;;;;;;;;;;;;;;5112241;28;2078;-44
2022/10/28 07:19:31;;;;;;;;;;;;;;;;;;5112581;28;1852;-44
2022/10/28 07:21:58;;;;;;;;;;;;;;;;;;5112010;28;2052;-41
2022/10/28 07:24:25;;;;;;;;;;;;;;;;;;5112712;28;1650;-44
2022/10/28 07:26:53;;;;;;;;;;;;;;;;;;5112197;28;2064;-46
2022/10/28 07:29:23;;;;;;;;;;;;;;;;;;5112070;28;1496;-50
2022/10/28 07:31:52;;;;;;;;;;;;;;;;;;5112058;28;1979;-46
2022/10/28 07:34:20;;;;;;;;;;;;;;;;;;5112582;28;1581;-46
2022/10/28 07:36:53;;;;;;;;;;;;;;;;;;5112272;28;1471;-45
2022/10/28 07:39:20;;;;;;;;;;;;;;;;;;5112244;28;1860;-44
2022/10/28 07:41:47;;;;;;;;;;;;;;;;;;5111980;28;1701;-45
2022/10/28 07:44:14;;;;;;;;;;;;;;;;;;5112002;28;1993;-44
2022/10/28 07:46:43;;;;;;;;;;;;;;;;;;5111956;28;2084;-40
2022/10/28 07:49:10;;;;;;;;;;;;;;;;;;5112089;28;1731;-45
2022/10/28 07:51:37;;;;;;;;;;;;;;;;;;5111662;28;1901;-47
2022/10/28 07:54:04;;;;;;;;;;;;;;;;;;5111829;28;1440;-45
2022/10/28 07:56:31;;;;;;;;;;;;;;;;;;5111798;28;1693;-43
2022/10/28 07:59:01;;;;;;;;;;;;;;;;;;5111803;28;1942;-46
2022/10/28 08:01:29;;;;;;;;;;;;;;;;;;5111856;28;1247;-44
2022/10/28 08:03:56;;;;;;;;;;;;;;;;;;5111816;28;1875;-46
2022/10/28 08:06:24;;;;;;;;;;;;;;;;;;5111717;28;2017;-44
2022/10/28 08:08:54;;;;;;;;;;;;;;;;;;5111466;28;1943;-47
2022/10/28 08:11:22;;;;;;;;;;;;;;;;;;5111527;28;1900;-51
2022/10/28 08:13:50;;;;;;;;;;;;;;;;;;5111518;28;1962;-48
2022/10/28 08:16:20;;;;;;;;;;;;;;;;;;5111742;28;1997;-47
2022/10/28 08:18:47;;;;;;;;;;;;;;;;;;5111430;28;1796;-45
2022/10/28 08:21:14;;;;;;;;;;;;;;;;;;5111586;28;1738;-47
2022/10/28 08:23:45;;;;;;;;;;;;;;;;;;5111545;28;2179;-43
2022/10/28 08:26:13;;;;;;;;;;;;;;;;;;5111418;28;1984;-44
2022/10/28 08:28:41;;;;;;;;;;;;;;;;;;5111561;28;1740;-47
2022/10/28 08:31:11;;;;;;;;;;;;;;;;;;5111606;28;1712;-48
2022/10/28 08:33:39;;;;;;;;;;;;;;;;;;5113763;28;2190;-46
2022/10/28 08:36:09;;;;;;;;;;;;;;;;;;5114194;28;1701;-48
2022/10/28 08:38:41;;;;;;;;;;;;;;;;;;5115408;28;1995;-49
2022/10/28 08:41:12;;;;;;;;;;;;;;;;;;5115547;28;1859;-44
2022/10/28 08:43:40;;;;;;;;;;;;;;;;;;5115213;28;1946;-42
2022/10/28 08:46:45;;;;;;;;;;;;;;;;;;5114257;28;1488;-45
2022/10/28 08:49:16;;;;;;;;;;;;;;;;;;5115280;28;2077;-43
2022/10/28 08:51:46;;;;;;;;;;;;;;;;;;5129151;27;1901;-46
2022/10/28 08:54:17;;;;;;;;;;;;;;;;;;5135858;27;2194;-51
2022/10/28 08:56:47;;;;;;;;;;;;;;;;;;5135970;27;1680;-47
2022/10/28 08:59:31;;;;;;;;;;;;;;;;;;5136062;27;1949;-46
2022/10/28 09:02:00;;;;;;;;;;;;;;;;;;5135615;27;2172;-45
2022/10/28 09:04:38;;;;;;;;;;;;;;;;;;5135286;27;1713;-49
2022/10/28 09:07:10;;;;;;;;;;;;;;;;;;5135835;27;1592;-50
2022/10/28 09:09:38;;;;;;;;;;;;;;;;;;5135158;27;1945;-48
2022/10/28 09:12:15;;;;;;;;;;;;;;;;;;5135688;27;1913;-41
2022/10/28 09:14:56;;;;;;;;;;;;;;;;;;5135677;27;1970;-41
2022/10/28 09:17:31;;;;;;;;;;;;;;;;;;5135747;27;1740;-46
2022/10/28 09:20:01;;;;;;;;;;;;;;;;;;5135209;27;1826;-47
2022/10/28 09:22:38;;;;;;;;;;;;;;;;;;5135284;27;1689;-44
2022/10/28 09:25:14;;;;;;;;;;;;;;;;;;5135243;27;2077;-46
2022/10/28 09:27:56;;;;;;;;;;;;;;;;;;5135045;27;1897;-43
2022/10/28 09:30:24;;;;;;;;;;;;;;;;;;5134880;27;2007;-47
2022/10/28 09:32:51;;;;;;;;;;;;;;;;;;5135139;27;1915;-50
2022/10/28 09:35:21;;;;;;;;;;;;;;;;;;5133842;27;1823;-51
2022/10/28 09:37:54;;;;;;;;;;;;;;;;;;5134888;27;1576;-48
2022/10/28 09:40:24;;;;;;;;;;;;;;;;;;5134722;27;1723;-48
2022/10/28 09:43:08;;;;;;;;;;;;;;;;;;5134591;27;1878;-52
2022/10/28 09:45:38;;;;;;;;;;;;;;;;;;5134240;27;1981;-41
2022/10/28 09:48:29;;;;;;;;;;;;;;;;;;5134885;27;1650;-43
2022/10/28 09:50:57;;;;;;;;;;;;;;;;;;5121802;27;1673;-48
2022/10/28 09:53:25;;;;;;;;;;;;;;;;;;5114013;28;1913;-42
2022/10/28 09:55:55;;;;;;;;;;;;;;;;;;5114129;28;1857;-45
2022/10/28 09:58:23;;;;;;;;;;;;;;;;;;5114136;28;1966;-44
2022/10/28 10:00:50;;;;;;;;;;;;;;;;;;5113998;28;1772;-47
2022/10/28 10:03:17;;;;;;;;;;;;;;;;;;5113961;27;1636;-47
2022/10/28 10:05:49;;;;;;;;;;;;;;;;;;5113396;28;1836;-49
2022/10/28 10:08:20;;;;;;;;;;;;;;;;;;5113792;28;2171;-44
2022/10/28 10:11:01;;;;;;;;;;;;;;;;;;5113570;28;1645;-44
2022/10/28 10:13:33;;;;;;;;;;;;;;;;;;5113687;28;1982;-43
2022/10/28 10:16:13;;;;;;;;;;;;;;;;;;5128858;27;1382;-47
2022/10/28 10:18:45;;;;;;;;;;;;;;;;;;5113470;28;1667;-44
2022/10/28 10:21:13;;;;;;;;;;;;;;;;;;5113576;28;2013;-44
2022/10/28 10:23:40;;;;;;;;;;;;;;;;;;5113725;28;1998;-42
2022/10/28 10:26:12;;;;;;;;;;;;;;;;;;5127132;27;1982;-45
2022/10/28 10:28:44;;;;;;;;;;;;;;;;;;5132606;27;1861;-42
2022/10/28 10:31:25;;;;;;;;;;;;;;;;;;5133835;27;2151;-43
2022/10/28 10:34:00;;;;;;;;;;;;;;;;;;5133668;27;1986;-42
2022/10/28 10:36:30;;;;;;;;;;;;;;;;;;5133935;27;1721;-42
2022/10/28 10:38:58;;;;;;;;;;;;;;;;;;5133485;27;2325;-46
2022/10/28 10:41:38;;;;;;;;;;;;;;;;;;5133739;27;1623;-47
2022/10/28 10:44:21;;;;;;;;;;;;;;;;;;5133509;27;1925;-45
2022/10/28 10:46:54;;;;;;;;;;;;;;;;;;5132388;27;1626;-47
2022/10/28 10:49:21;;;;;;;;;;;;;;;;;;5133332;27;1994;-51
2022/10/28 10:51:53;;;;;;;;;;;;;;;;;;5118707;27;2020;-44
2022/10/28 10:54:20;;;;;;;;;;;;;;;;;;5112852;28;1901;-46
2022/10/28 10:56:47;;;;;;;;;;;;;;;;;;5111789;27;1809;-43
2022/10/28 10:59:36;;;;;;;;;;;;;;;;;;5127554;27;1885;-49
2022/10/28 11:02:19;;;;;;;;;;;;;;;;;;5133063;27;2008;-49
2022/10/28 11:04:51;;;;;;;;;;;;;;;;;;5133059;27;1641;-42
2022/10/28 11:07:18;;;;;;;;;;;;;;;;;;5133159;27;1721;-44
2022/10/28 11:09:47;;;;;;;;;;;;;;;;;;5133242;27;1939;-46
2022/10/28 11:12:15;;;;;;;;;;;;;;;;;;5132684;27;2167;-40
2022/10/28 11:14:53;;;;;;;;;;;;;;;;;;5133132;27;1852;-43
2022/10/28 11:17:23;;;;;;;;;;;;;;;;;;5132711;27;2472;-44
2022/10/28 11:19:54;;;;;;;;;;;;;;;;;;5132921;27;2307;-49
2022/10/28 11:22:21;;;;;;;;;;;;;;;;;;5132836;27;1525;-45
2022/10/28 11:25:00;;;;;;;;;;;;;;;;;;5132878;27;1315;-48
2022/10/28 11:27:29;;;;;;;;;;;;;;;;;;5132729;27;2046;-47
2022/10/28 11:29:58;;;;;;;;;;;;;;;;;;5132583;27;1610;-51
2022/10/28 11:32:32;;;;;;;;;;;;;;;;;;5132674;27;1914;-46
2022/10/28 11:35:07;;;;;;;;;;;;;;;;;;5132642;27;1673;-46
2022/10/28 11:37:56;;;;;;;;;;;;;;;;;;5132410;27;1775;-51
2022/10/28 11:40:31;;;;;;;;;;;;;;;;;;5132558;27;1999;-43
2022/10/28 11:43:18;;;;;;;;;;;;;;;;;;5132741;27;1695;-40
2022/10/28 11:45:54;;;;;;;;;;;;;;;;;;5132609;27;2019;-41
2022/10/28 11:48:37;;;;;;;;;;;;;;;;;;5132601;27;1970;-41
2022/10/28 11:51:08;;;;;;;;;;;;;;;;;;5123969;27;2024;-46
2022/10/28 11:53:52;;;;;;;;;;;;;;;;;;5111795;28;1915;-41
2022/10/28 11:56:35;;;;;;;;;;;;;;;;;;5110579;28;1598;-44
2022/10/28 11:59:22;;;;;;;;;;;;;;;;;;5110432;28;1897;-46
2022/10/28 12:02:11;;;;;;;;;;;;;;;;;;5111842;28;1852;-46
2022/10/28 12:05:02;;;;;;;;;;;;;;;;;;5111327;28;1512;-44
2022/10/28 12:07:32;;;;;;;;;;;;;;;;;;5111327;28;1887;-45
2022/10/28 12:10:19;;;;;;;;;;;;;;;;;;5111713;28;2093;-41
2022/10/28 12:12:50;;;;;;;;;;;;;;;;;;5110172;28;1981;-43
2022/10/28 12:15:28;;;;;;;;;;;;;;;;;;5111473;28;1538;-40
2022/10/28 12:18:20;;;;;;;;;;;;;;;;;;5111438;28;1789;-46
2022/10/28 12:20:53;;;;;;;;;;;;;;;;;;5111899;28;1671;-42
2022/10/28 12:23:22;;;;;;;;;;;;;;;;;;5111329;28;1567;-43
2022/10/28 12:25:53;;;;;;;;;;;;;;;;;;5110311;28;1809;-42
2022/10/28 12:28:23;;;;;;;;;;;;;;;;;;5111431;28;1851;-44
2022/10/28 12:30:53;;;;;;;;;;;;;;;;;;5111772;28;2270;-41
2022/10/28 12:33:21;;;;;;;;;;;;;;;;;;5111559;28;1917;-47
2022/10/28 12:35:54;;;;;;;;;;;;;;;;;;5111279;28;1901;-46
2022/10/28 12:38:21;;;;;;;;;;;;;;;;;;5109589;28;1838;-47
2022/10/28 12:40:53;;;;;;;;;;;;;;;;;;5110082;28;2018;-48
2022/10/28 12:43:26;;;;;;;;;;;;;;;;;;5111341;28;1838;-42
2022/10/28 12:45:55;;;;;;;;;;;;;;;;;;5111408;28;1893;-54
2022/10/28 12:48:30;;;;;;;;;;;;;;;;;;5111228;28;1925;-48
2022/10/28 12:51:12;;;;;;;;;;;;;;;;;;5111089;28;2128;-45
2022/10/28 12:53:43;;;;;;;;;;;;;;;;;;5110764;28;2115;-50
2022/10/28 12:56:13;;;;;;;;;;;;;;;;;;5110080;28;1731;-43
2022/10/28 12:58:41;;;;;;;;;;;;;;;;;;5110436;28;1570;-40
2022/10/28 13:01:11;;;;;;;;;;;;;;;;;;5111151;28;1844;-42
2022/10/28 13:03:39;;;;;;;;;;;;;;;;;;5111161;28;1861;-43
2022/10/28 13:06:13;;;;;;;;;;;;;;;;;;5111011;28;1878;-43
2022/10/28 13:08:43;;;;;;;;;;;;;;;;;;5111144;28;1892;-41
2022/10/28 13:11:11;;;;;;;;;;;;;;;;;;5110846;28;1915;-41
2022/10/28 13:13:42;;;;;;;;;;;;;;;;;;5109438;28;2325;-43
2022/10/28 13:16:13;;;;;;;;;;;;;;;;;;5110924;28;1839;-41
2022/10/28 13:18:47;;;;;;;;;;;;;;;;;;5110952;28;1973;-40
2022/10/28 13:21:23;;;;;;;;;;;;;;;;;;5113837;28;1667;-46
2022/10/28 13:23:59;;;;;;;;;;;;;;;;;;5114538;28;1683;-42
2022/10/28 13:26:34;;;;;;;;;;;;;;;;;;5114510;28;1406;-46
2022/10/28 13:29:05;;;;;;;;;;;;;;;;;;5114443;28;2004;-43
2022/10/28 13:31:36;;;;;;;;;;;;;;;;;;5114270;28;1952;-41
2022/10/28 13:34:11;;;;;;;;;;;;;;;;;;5114161;28;2017;-40
2022/10/28 13:36:41;;;;;;;;;;;;;;;;;;5114476;28;2129;-46
2022/10/28 13:39:37;;;;;;;;;;;;;;;;;;5114388;28;1887;-40
2022/10/28 13:42:14;;;;;;;;;;;;;;;;;;5114233;28;1838;-46
2022/10/28 13:44:56;;;;;;;;;;;;;;;;;;5114136;28;1939;-42
2022/10/28 13:47:25;;;;;;;;;;;;;;;;;;5114329;28;2148;-45
2022/10/28 13:50:05;;;;;;;;;;;;;;;;;;5114606;27;1709;-45
2022/10/28 13:55:39;;;;;;;;;;;;;;;;;;5113798;28;1896;-46
2022/10/28 13:58:18;;;;;;;;;;;;;;;;;;5114037;28;1944;-43
2022/10/28 14:00:46;;;;;;;;;;;;;;;;;;5113849;28;2306;-48
2022/10/28 14:03:18;;;;;;;;;;;;;;;;;;5113785;28;1951;-46
2022/10/28 14:05:47;;;;;;;;;;;;;;;;;;5113633;28;2259;-42
2022/10/28 14:08:25;;;;;;;;;;;;;;;;;;5113771;27;1937;-45
2022/10/28 14:11:02;;;;;;;;;;;;;;;;;;5113884;28;1814;-45
2022/10/28 14:13:35;;;;;;;;;;;;;;;;;;5113630;28;2032;-43
2022/10/28 14:16:25;;;;;;;;;;;;;;;;;;5113471;28;2191;-42
2022/10/28 14:19:02;;;;;;;;;;;;;;;;;;5113628;28;2140;-42
2022/10/28 14:21:38;;;;;;;;;;;;;;;;;;5112204;28;2030;-41
2022/10/28 14:24:09;;;;;;;;;;;;;;;;;;5113243;28;1818;-44
2022/10/28 14:26:55;;;;;;;;;;;;;;;;;;5113409;28;2025;-47
2022/10/28 14:29:31;;;;;;;;;;;;;;;;;;5113601;28;1893;-46
2022/10/28 14:32:24;;;;;;;;;;;;;;;;;;5111600;28;1885;-49
2022/10/28 14:34:52;;;;;;;;;;;;;;;;;;5113305;28;2174;-41
2022/10/28 14:37:27;;;;;;;;;;;;;;;;;;5113035;28;2157;-42
2022/10/28 14:40:21;;;;;;;;;;;;;;;;;;5113044;28;1833;-40
2022/10/28 14:42:49;;;;;;;;;;;;;;;;;;5112980;28;1996;-44
2022/10/28 14:45:33;;;;;;;;;;;;;;;;;;5113010;28;1899;-44
2022/10/28 14:48:12;;;;;;;;;;;;;;;;;;5113029;28;1611;-42
2022/10/28 14:50:48;;;;;;;;;;;;;;;;;;5112775;28;1827;-44
2022/10/28 14:53:23;;;;;;;;;;;;;;;;;;5112103;28;1919;-41
2022/10/28 14:55:56;;;;;;;;;;;;;;;;;;5111641;28;1707;-46
2022/10/28 14:58:28;;;;;;;;;;;;;;;;;;5111998;28;1716;-44
2022/10/28 15:01:04;;;;;;;;;;;;;;;;;;5112488;28;1817;-41
2022/10/28 15:03:33;;;;;;;;;;;;;;;;;;5110774;28;1916;-42
2022/10/28 15:06:18;;;;;;;;;;;;;;;;;;5111515;28;1909;-42
2022/10/28 15:08:48;;;;;;;;;;;;;;;;;;5112510;28;1779;-44
2022/10/28 15:11:15;;;;;;;;;;;;;;;;;;5112199;28;2021;-41
2022/10/28 15:13:42;;;;;;;;;;;;;;;;;;5112432;28;1914;-40
2022/10/28 15:16:22;;;;;;;;;;;;;;;;;;5112338;28;2320;-42
2022/10/28 15:18:52;;;;;;;;;;;;;;;;;;5112418;28;2100;-41
2022/10/28 15:21:22;;;;;;;;;;;;;;;;;;5112363;28;2044;-41
2022/10/28 15:24:01;;;;;;;;;;;;;;;;;;5112516;28;1863;-42
2022/10/28 15:26:29;;;;;;;;;;;;;;;;;;5112130;28;1840;-40
2022/10/28 15:28:58;;;;;;;;;;;;;;;;;;5112249;28;2118;-45
2022/10/28 15:31:25;;;;;;;;;;;;;;;;;;5112308;28;1923;-41
2022/10/28 15:33:52;;;;;;;;;;;;;;;;;;5112025;28;1919;-41
2022/10/28 15:36:21;;;;;;;;;;;;;;;;;;5111971;28;1522;-48
2022/10/28 15:38:50;;;;;;;;;;;;;;;;;;5111024;28;1742;-48
2022/10/28 15:41:20;;;;;;;;;;;;;;;;;;5111242;28;1930;-41
2022/10/28 15:43:54;;;;;;;;;;;;;;;;;;5110748;28;1888;-41
2022/10/28 15:46:22;;;;;;;;;;;;;;;;;;5111492;28;1811;-43
2022/10/28 15:48:53;;;;;;;;;;;;;;;;;;5111805;28;1839;-43
2022/10/28 15:51:23;;;;;;;;;;;;;;;;;;5117654;27;2229;-44
2022/10/28 15:53:54;;;;;;;;;;;;;;;;;;5111525;28;1923;-40
2022/10/28 15:56:28;;;;;;;;;;;;;;;;;;5111628;28;1848;-42
2022/10/28 15:59:15;;;;;;;;;;;;;;;;;;5111752;28;1974;-44
2022/10/28 16:01:42;;;;;;;;;;;;;;;;;;5111512;28;1833;-41
2022/10/28 16:04:24;;;;;;;;;;;;;;;;;;5111489;28;2007;-48
2022/10/28 16:07:05;;;;;;;;;;;;;;;;;;5111284;28;2182;-45
2022/10/28 16:09:34;;;;;;;;;;;;;;;;;;5111466;28;1785;-42
2022/10/28 16:12:02;;;;;;;;;;;;;;;;;;5111665;28;2048;-42
2022/10/28 16:14:37;;;;;;;;;;;;;;;;;;5111455;28;1978;-41
2022/10/28 16:17:25;;;;;;;;;;;;;;;;;;5111258;28;1772;-44
2022/10/28 16:20:09;;;;;;;;;;;;;;;;;;5111112;28;1712;-44
2022/10/28 16:22:43;;;;;;;;;;;;;;;;;;5111560;28;1763;-42
2022/10/28 16:25:12;;;;;;;;;;;;;;;;;;5111509;28;1634;-43
2022/10/28 16:27:41;;;;;;;;;;;;;;;;;;5111324;28;1984;-41
2022/10/28 16:30:08;;;;;;;;;;;;;;;;;;5118172;28;1827;-49
2022/10/28 16:32:41;;;;;;;;;;;;;;;;;;5116654;28;1896;-44
2022/10/28 16:35:13;;;;;;;;;;;;;;;;;;5111435;28;1913;-44
2022/10/28 16:37:49;;;;;;;;;;;;;;;;;;5111343;28;1561;-46
2022/10/28 16:40:22;;;;;;;;;;;;;;;;;;5111314;28;2504;-45
2022/10/28 16:43:35;;;;;;;;;;;;;;;;;;5111246;28;1682;-41
2022/10/28 16:46:04;;;;;;;;;;;;;;;;;;5109838;28;1793;-42
2022/10/28 16:48:31;;;;;;;;;;;;;;;;;;5111629;28;1681;-42
2022/10/28 16:51:10;;;;;;;;;;;;;;;;;;5111309;28;2187;-44
2022/10/28 16:53:45;;;;;;;;;;;;;;;;;;5111714;28;1948;-45
2022/10/28 16:56:18;;;;;;;;;;;;;;;;;;5114980;28;1869;-41
2022/10/28 16:58:50;;;;;;;;;;;;;;;;;;5115283;28;1775;-41
2022/10/28 17:01:20;;;;;;;;;;;;;;;;;;5115247;27;1475;-40
2022/10/28 17:03:50;;;;;;;;;;;;;;;;;;5114864;28;1912;-42
2022/10/28 17:06:22;;;;;;;;;;;;;;;;;;5114499;28;1827;-41
2022/10/28 17:08:49;;;;;;;;;;;;;;;;;;5114680;28;2006;-42
2022/10/28 17:11:28;;;;;;;;;;;;;;;;;;5121481;27;1812;-43
2022/10/28 17:13:56;;;;;;;;;;;;;;;;;;5126379;27;2251;-44
2022/10/28 17:16:25;;;;;;;;;;;;;;;;;;5129713;27;2249;-43
2022/10/28 17:18:53;;;;;;;;;;;;;;;;;;5117784;27;2073;-50
2022/10/28 17:21:22;;;;;;;;;;;;;;;;;;5127729;27;1643;-44
2022/10/28 17:23:50;;;;;;;;;;;;;;;;;;5131850;27;1972;-46
2022/10/28 17:26:18;;;;;;;;;;;;;;;;;;5135096;27;2237;-43
2022/10/28 17:28:51;;;;;;;;;;;;;;;;;;5135182;27;1733;-40
2022/10/28 17:31:19;;;;;;;;;;;;;;;;;;5134603;27;2291;-45
2022/10/28 17:33:56;;;;;;;;;;;;;;;;;;5134729;27;2004;-40
2022/10/28 17:36:23;;;;;;;;;;;;;;;;;;5135009;27;1989;-40